createdAt,value
2023-04-09T00:00:26.154Z,6.70
2023-04-09T00:03:27.790Z,6.70
2023-04-09T00:06:29.647Z,6.00
2023-04-09T00:09:32.091Z,5.40
2023-04-09T00:12:33.718Z,5.70
2023-04-09T00:15:35.385Z,4.40
2023-04-09T00:18:36.974Z,5.50
2023-04-09T00:21:38.652Z,5.20
2023-04-09T00:24:40.515Z,5.60
2023-04-09T00:27:42.110Z,5.10
2023-04-09T00:30:43.897Z,5.20
2023-04-09T00:33:45.603Z,4.90
2023-04-09T00:36:47.210Z,4.50
2023-04-09T00:39:48.844Z,4.70
2023-04-09T00:42:50.724Z,4.10
2023-04-09T00:45:52.391Z,4.90
2023-04-09T00:48:54.823Z,5.20
2023-04-09T00:51:56.631Z,5.60
2023-04-09T00:54:59.753Z,5.30
2023-04-09T00:58:01.813Z,5.40
2023-04-09T01:01:03.728Z,5.00
2023-04-09T01:04:05.525Z,5.40
2023-04-09T01:07:20.424Z,5.40
2023-04-09T01:10:46.710Z,5.80
2023-04-09T01:13:55.776Z,4.90
2023-04-09T01:17:01.030Z,5.00
2023-04-09T01:20:31.752Z,4.50
2023-04-09T01:23:45.644Z,4.90
2023-04-09T01:26:51.428Z,5.00
2023-04-09T01:29:53.681Z,5.00
2023-04-09T01:32:55.761Z,5.60
2023-04-09T01:35:57.979Z,5.70
2023-04-09T01:39:01.685Z,5.10
2023-04-09T01:42:03.975Z,5.00
2023-04-09T01:45:06.453Z,5.30
2023-04-09T01:48:08.461Z,5.10
2023-04-09T01:51:10.378Z,5.00
2023-04-09T01:54:12.020Z,4.70
2023-04-09T01:57:13.634Z,5.10
2023-04-09T02:00:15.751Z,4.80
2023-04-09T02:03:22.294Z,5.50
2023-04-09T02:06:48.940Z,4.70
2023-04-09T02:09:51.430Z,4.60
2023-04-09T02:15:56.665Z,4.40
2023-04-09T02:19:01.257Z,4.10
2023-04-09T02:22:04.732Z,4.80
2023-04-09T02:25:06.979Z,4.10
2023-04-09T02:28:08.528Z,3.90
2023-04-09T02:31:11.412Z,4.50
2023-04-09T02:34:13.052Z,4.20
2023-04-09T02:37:14.707Z,4.90
2023-04-09T02:40:16.306Z,4.60
2023-04-09T02:43:18.004Z,4.50
2023-04-09T02:46:19.694Z,4.30
2023-04-09T02:49:21.360Z,4.60
2023-04-09T02:52:25.999Z,4.60
2023-04-09T02:55:27.704Z,4.50
2023-04-09T02:58:29.440Z,4.50
2023-04-09T03:01:31.343Z,4.20
2023-04-09T03:04:32.969Z,4.20
2023-04-09T03:07:34.633Z,4.10
2023-04-09T03:10:36.209Z,3.70
2023-04-09T03:13:37.932Z,4.10
2023-04-09T03:16:39.603Z,4.20
2023-04-09T03:19:41.302Z,4.00
2023-04-09T03:22:43.366Z,4.40
2023-04-09T03:26:06.318Z,3.80
2023-04-09T03:29:21.097Z,4.00
2023-04-09T03:32:23.047Z,4.10
2023-04-09T03:35:24.997Z,4.60
2023-04-09T03:38:30.391Z,4.30
2023-04-09T03:41:33.994Z,3.90
2023-04-09T03:44:38.469Z,4.50
2023-04-09T03:47:43.393Z,4.50
2023-04-09T03:50:46.103Z,4.50
2023-04-09T03:53:49.326Z,4.40
2023-04-09T03:56:51.198Z,4.40
2023-04-09T03:59:55.961Z,4.50
2023-04-09T04:02:58.259Z,4.80
2023-04-09T04:06:17.667Z,4.70
2023-04-09T04:09:39.475Z,4.30
2023-04-09T04:12:45.970Z,5.10
2023-04-09T04:15:56.862Z,4.10
2023-04-09T04:18:59.029Z,4.40
2023-04-09T04:22:02.550Z,4.40
2023-04-09T04:25:07.581Z,4.40
2023-04-09T04:28:09.727Z,4.80
2023-04-09T04:31:14.933Z,4.70
2023-04-09T04:34:16.673Z,4.80
2023-04-09T04:37:21.340Z,5.00
2023-04-09T04:40:24.038Z,5.10
2023-04-09T04:43:31.310Z,5.20
2023-04-09T04:46:33.415Z,5.30
2023-04-09T04:49:35.111Z,5.10
2023-04-09T04:52:38.946Z,5.00
2023-04-09T04:55:41.013Z,4.70
2023-04-09T04:58:44.652Z,5.00
2023-04-09T05:01:46.559Z,5.40
2023-04-09T05:04:48.498Z,5.60
2023-04-09T05:07:51.750Z,5.30
2023-04-09T05:10:56.233Z,5.20
2023-04-09T05:13:59.511Z,5.40
2023-04-09T05:17:01.288Z,5.00
2023-04-09T05:20:09.703Z,4.40
2023-04-09T05:23:20.109Z,5.20
2023-04-09T05:26:23.076Z,5.30
2023-04-09T05:29:28.312Z,5.30
2023-04-09T05:32:30.046Z,5.60
2023-04-09T05:35:32.625Z,5.30
2023-04-09T05:38:34.830Z,5.60
2023-04-09T05:41:38.693Z,5.20
2023-04-09T05:45:00.875Z,5.30
2023-04-09T05:48:03.060Z,5.10
2023-04-09T05:51:04.763Z,5.90
2023-04-09T05:54:06.684Z,5.50
2023-04-09T05:57:11.357Z,5.40
2023-04-09T06:00:15.321Z,6.00
2023-04-09T06:03:21.033Z,5.80
2023-04-09T06:06:22.693Z,5.60
2023-04-09T06:09:24.340Z,5.50
2023-04-09T06:12:26.013Z,5.90
2023-04-09T06:15:28.112Z,5.40
2023-04-09T06:18:29.831Z,5.30
2023-04-09T06:21:31.514Z,4.70
2023-04-09T06:24:33.404Z,5.00
2023-04-09T06:30:53.613Z,5.00
2023-04-09T06:33:55.942Z,4.60
2023-04-09T06:36:57.960Z,4.30
2023-04-09T06:40:01.384Z,4.40
2023-04-09T06:43:03.638Z,4.00
2023-04-09T06:46:13.712Z,3.20
2023-04-09T06:49:15.448Z,2.50
2023-04-09T06:52:17.029Z,2.20
2023-04-09T06:55:18.819Z,2.40
2023-04-09T06:58:21.296Z,2.40
2023-04-09T07:01:22.958Z,2.20
2023-04-09T07:04:24.834Z,2.70
2023-04-09T07:07:26.547Z,3.00
2023-04-09T07:10:28.176Z,3.10
2023-04-09T07:13:29.758Z,2.70
2023-04-09T07:16:31.446Z,3.10
2023-04-09T07:19:33.119Z,2.60
2023-04-09T07:22:36.376Z,2.80
2023-04-09T07:25:38.069Z,2.90
2023-04-09T07:28:39.974Z,2.70
2023-04-09T07:31:41.685Z,2.70
2023-04-09T07:34:44.261Z,2.50
2023-04-09T07:37:46.381Z,2.70
2023-04-09T07:40:48.693Z,2.70
2023-04-09T07:43:50.505Z,2.90
2023-04-09T07:46:52.168Z,2.60
2023-04-09T07:49:53.737Z,2.80
2023-04-09T07:52:55.528Z,2.30
2023-04-09T07:55:57.162Z,2.40
2023-04-09T07:58:58.809Z,2.60
2023-04-09T08:02:00.561Z,2.30
2023-04-09T08:05:02.632Z,2.10
2023-04-09T08:08:05.413Z,2.50
2023-04-09T08:11:07.280Z,2.10
2023-04-09T08:14:13.010Z,1.90
2023-04-09T08:17:14.688Z,2.40
2023-04-09T08:20:17.212Z,2.40
2023-04-09T08:23:18.902Z,2.60
2023-04-09T08:26:20.413Z,2.50
2023-04-09T08:29:22.045Z,3.30
2023-04-09T08:32:23.695Z,3.20
2023-04-09T08:35:25.411Z,2.60
2023-04-09T08:38:27.361Z,2.50
2023-04-09T08:41:29.589Z,2.10
2023-04-09T08:44:31.287Z,1.90
2023-04-09T08:47:33.871Z,2.50
2023-04-09T08:50:36.064Z,2.40
2023-04-09T08:53:38.823Z,2.30
2023-04-09T08:56:40.439Z,1.80
2023-04-09T08:59:42.013Z,2.30
2023-04-09T09:03:04.421Z,2.10
2023-04-09T09:09:10.117Z,2.30
2023-04-09T09:12:11.689Z,3.10
2023-04-09T09:15:29.929Z,3.20
2023-04-09T09:18:43.072Z,2.80
2023-04-09T09:21:56.302Z,2.40
2023-04-09T09:24:57.859Z,2.90
2023-04-09T09:28:08.380Z,2.70
2023-04-09T09:31:12.900Z,3.10
2023-04-09T09:34:17.121Z,3.20
2023-04-09T09:37:28.441Z,2.60
2023-04-09T09:40:30.097Z,2.80
2023-04-09T09:43:42.270Z,4.40
2023-04-09T09:46:44.166Z,3.00
2023-04-09T09:49:48.419Z,3.60
2023-04-09T09:52:51.196Z,3.70
2023-04-09T09:55:53.885Z,4.70
2023-04-09T09:59:22.218Z,4.20
2023-04-09T10:02:24.749Z,3.20
2023-04-09T10:05:27.883Z,3.40
2023-04-09T10:08:30.790Z,5.30
2023-04-09T10:11:37.564Z,5.90
2023-04-09T10:14:40.471Z,4.20
2023-04-09T10:17:42.069Z,3.10
2023-04-09T10:20:53.053Z,3.60
2023-04-09T10:23:55.642Z,4.20
2023-04-09T10:27:09.745Z,3.80
2023-04-09T10:30:32.006Z,4.60
2023-04-09T10:33:34.438Z,3.40
2023-04-09T10:36:36.550Z,3.10
2023-04-09T10:39:45.085Z,3.10
2023-04-09T10:42:47.557Z,3.40
2023-04-09T10:45:53.573Z,2.90
2023-04-09T10:49:18.206Z,3.10
2023-04-09T10:52:30.290Z,2.80
2023-04-09T10:55:40.549Z,3.20
2023-04-09T10:58:42.141Z,3.00
2023-04-09T11:01:53.612Z,3.10
2023-04-09T11:05:42.628Z,3.30
2023-04-09T11:08:44.418Z,3.30
2023-04-09T11:11:53.261Z,3.00
2023-04-09T11:14:54.839Z,3.20
2023-04-09T11:17:57.832Z,2.60
2023-04-09T11:21:01.316Z,3.00
2023-04-09T11:24:02.971Z,2.90
2023-04-09T11:27:05.516Z,3.00
2023-04-09T11:30:07.938Z,2.90
2023-04-09T11:33:09.748Z,3.70
2023-04-09T11:36:11.390Z,2.60
2023-04-09T11:39:13.093Z,3.40
2023-04-09T11:42:15.667Z,3.40
2023-04-09T11:45:18.147Z,3.50
2023-04-09T11:48:21.840Z,3.10
2023-04-09T11:51:23.602Z,3.40
2023-04-09T11:54:25.791Z,2.80
2023-04-09T11:57:38.420Z,3.30
2023-04-09T12:00:43.194Z,3.30
2023-04-09T12:03:44.937Z,3.50
2023-04-09T12:06:46.699Z,3.70
2023-04-09T12:09:49.040Z,3.00
2023-04-09T12:12:50.595Z,3.40
2023-04-09T12:15:52.668Z,3.90
2023-04-09T12:18:55.873Z,3.50
2023-04-09T12:21:58.537Z,2.90
2023-04-09T12:25:00.558Z,3.20
2023-04-09T12:28:03.331Z,3.20
2023-04-09T12:31:05.024Z,3.60
2023-04-09T12:34:06.884Z,3.50
2023-04-09T12:37:08.538Z,4.30
2023-04-09T12:40:11.983Z,3.10
2023-04-09T12:43:13.653Z,3.50
2023-04-09T12:46:15.848Z,3.70
2023-04-09T12:49:18.375Z,3.40
2023-04-09T12:52:20.079Z,3.00
2023-04-09T12:55:22.331Z,3.30
2023-04-09T12:58:24.293Z,3.20
2023-04-09T13:01:26.022Z,3.60
2023-04-09T13:04:27.904Z,3.60
2023-04-09T13:07:29.846Z,4.20
2023-04-09T13:10:31.407Z,3.80
2023-04-09T13:13:33.646Z,4.20
2023-04-09T13:16:35.228Z,3.60
2023-04-09T13:19:36.809Z,4.20
2023-04-09T13:22:38.440Z,3.40
2023-04-09T13:25:40.073Z,3.70
2023-04-09T13:28:41.791Z,3.40
2023-04-09T13:31:43.353Z,3.80
2023-04-09T13:34:44.910Z,3.40
2023-04-09T13:37:46.499Z,3.80
2023-04-09T13:40:48.206Z,3.40
2023-04-09T13:43:49.777Z,3.70
2023-04-09T13:46:51.490Z,3.60
2023-04-09T13:49:53.306Z,2.80
2023-04-09T13:52:54.912Z,3.50
2023-04-09T13:55:56.521Z,3.00
2023-04-09T13:58:58.084Z,3.20
2023-04-09T14:01:59.755Z,3.30
2023-04-09T14:05:03.704Z,3.10
2023-04-09T14:08:06.139Z,3.30
2023-04-09T14:11:08.208Z,2.80
2023-04-09T14:14:10.707Z,3.10
2023-04-09T14:17:12.319Z,2.70
2023-04-09T14:20:13.957Z,3.10
2023-04-09T14:23:15.568Z,3.30
2023-04-09T14:26:17.297Z,3.00
2023-04-09T14:29:19.712Z,3.60
2023-04-09T14:32:21.376Z,2.70
2023-04-09T14:35:23.378Z,2.40
2023-04-09T14:38:25.183Z,2.80
2023-04-09T14:41:26.852Z,2.90
2023-04-09T14:44:28.543Z,2.90
2023-04-09T14:47:30.527Z,3.00
2023-04-09T14:50:33.954Z,2.90
2023-04-09T14:53:36.384Z,2.80
2023-04-09T14:56:37.978Z,2.80
2023-04-09T14:59:39.594Z,3.70
2023-04-09T15:02:41.604Z,3.20
2023-04-09T15:05:43.568Z,3.20
2023-04-09T15:08:45.524Z,3.60
2023-04-09T15:11:47.193Z,3.20
2023-04-09T15:14:48.709Z,3.70
2023-04-09T15:17:50.702Z,3.00
2023-04-09T15:20:52.289Z,3.20
2023-04-09T15:23:53.941Z,3.70
2023-04-09T15:26:56.856Z,3.10
2023-04-09T15:29:58.513Z,3.60
2023-04-09T15:33:00.509Z,3.50
2023-04-09T15:36:02.202Z,4.90
2023-04-09T15:39:04.482Z,3.80
2023-04-09T15:42:08.761Z,4.50
2023-04-09T15:45:11.746Z,3.80
2023-04-09T15:48:13.404Z,4.40
2023-04-09T15:51:15.022Z,4.70
2023-04-09T15:54:16.670Z,4.00
2023-04-09T15:57:19.411Z,4.70
2023-04-09T16:00:21.241Z,4.40
2023-04-09T16:03:22.966Z,3.50
2023-04-09T16:06:24.776Z,3.40
2023-04-09T16:09:26.539Z,3.20
2023-04-09T16:12:28.115Z,3.00
2023-04-09T16:15:29.748Z,3.10
2023-04-09T16:18:31.369Z,2.90
2023-04-09T16:21:33.373Z,3.00
2023-04-09T16:24:35.012Z,3.30
2023-04-09T16:27:36.647Z,3.30
2023-04-09T16:30:38.333Z,3.20
2023-04-09T16:33:39.944Z,3.00
2023-04-09T16:36:41.829Z,3.50
2023-04-09T16:39:43.421Z,4.40
2023-04-09T16:42:45.076Z,3.80
2023-04-09T16:45:46.717Z,3.70
2023-04-09T16:48:48.358Z,3.70
2023-04-09T16:51:51.941Z,3.20
2023-04-09T16:54:53.577Z,3.10
2023-04-09T16:57:56.794Z,3.60
2023-04-09T17:00:59.293Z,2.60
2023-04-09T17:04:03.081Z,2.60
2023-04-09T17:07:04.854Z,2.80
2023-04-09T17:10:07.102Z,2.60
2023-04-09T17:13:08.849Z,2.90
2023-04-09T17:16:11.883Z,3.10
2023-04-09T17:19:13.913Z,2.80
2023-04-09T17:22:17.803Z,2.80
2023-04-09T17:25:20.474Z,2.80
2023-04-09T17:28:22.122Z,2.40
2023-04-09T17:31:24.205Z,3.60
2023-04-09T17:34:26.230Z,3.00
2023-04-09T17:37:28.907Z,2.90
2023-04-09T17:40:30.481Z,3.00
2023-04-09T17:43:32.087Z,3.50
2023-04-09T17:46:33.743Z,2.90
2023-04-09T17:49:35.639Z,2.90
2023-04-09T17:52:37.530Z,3.40
2023-04-09T17:55:39.234Z,2.80
2023-04-09T17:58:41.359Z,3.50
2023-04-09T18:01:43.049Z,2.70
2023-04-09T18:04:44.895Z,2.90
2023-04-09T18:07:47.030Z,4.70
2023-04-09T18:10:58.885Z,3.50
2023-04-09T18:14:12.892Z,3.20
2023-04-09T18:17:16.249Z,3.20
2023-04-09T18:20:18.166Z,3.60
2023-04-09T18:23:19.848Z,3.70
2023-04-09T18:26:21.413Z,3.60
2023-04-09T18:29:22.976Z,3.30
2023-04-09T18:32:25.303Z,3.30
2023-04-09T18:35:27.062Z,3.30
2023-04-09T18:38:31.689Z,3.20
2023-04-09T18:41:33.269Z,3.70
2023-04-09T18:44:37.212Z,3.60
2023-04-09T18:47:39.006Z,4.10
2023-04-09T18:50:41.035Z,4.10
2023-04-09T18:53:42.694Z,3.80
2023-04-09T18:56:46.583Z,3.90
2023-04-09T18:59:48.251Z,3.80
2023-04-09T19:02:50.154Z,4.30
2023-04-09T19:05:52.011Z,3.90
2023-04-09T19:08:58.836Z,3.90
2023-04-09T19:12:02.019Z,4.10
2023-04-09T19:15:04.870Z,3.30
2023-04-09T19:18:06.992Z,3.70
2023-04-09T19:21:09.086Z,4.00
2023-04-09T19:24:10.829Z,4.10
2023-04-09T19:27:13.252Z,3.90
2023-04-09T19:30:14.865Z,3.50
2023-04-09T19:33:16.583Z,3.70
2023-04-09T19:36:18.197Z,3.20
2023-04-09T19:39:19.983Z,3.70
2023-04-09T19:42:21.546Z,3.70
2023-04-09T19:45:23.198Z,3.90
2023-04-09T19:48:24.780Z,4.00
2023-04-09T19:51:27.385Z,4.90
2023-04-09T19:54:29.012Z,4.30
2023-04-09T19:57:31.945Z,4.80
2023-04-09T20:00:34.633Z,4.10
2023-04-09T20:03:36.399Z,4.10
2023-04-09T20:06:38.039Z,4.60
2023-04-09T20:09:42.425Z,4.90
2023-04-09T20:12:47.520Z,4.90
2023-04-09T20:15:50.128Z,4.40
2023-04-09T20:18:51.958Z,4.20
2023-04-09T20:21:54.858Z,3.90
2023-04-09T20:24:56.730Z,4.40
2023-04-09T20:27:58.352Z,5.10
2023-04-09T20:31:03.033Z,8.20
2023-04-09T20:34:04.620Z,5.00
2023-04-09T20:37:06.716Z,4.20
2023-04-09T20:40:08.734Z,4.10
2023-04-09T20:43:10.460Z,3.70
2023-04-09T20:46:12.450Z,3.90
2023-04-09T20:49:14.270Z,4.70
2023-04-09T20:52:16.022Z,3.90
2023-04-09T20:55:17.947Z,3.80
2023-04-09T20:58:20.444Z,4.30
2023-04-09T21:01:22.272Z,4.20
2023-04-09T21:04:25.568Z,4.40
2023-04-09T21:07:29.108Z,4.60
2023-04-09T21:10:31.181Z,4.00
2023-04-09T21:13:40.541Z,4.10
2023-04-09T21:16:48.564Z,3.70
2023-04-09T21:19:51.678Z,4.10
2023-04-09T21:22:54.282Z,4.10
2023-04-09T21:25:55.952Z,4.20
2023-04-09T21:28:57.627Z,3.50
2023-04-09T21:32:00.546Z,3.60
2023-04-09T21:35:02.204Z,4.00
2023-04-09T21:38:03.922Z,4.40
2023-04-09T21:41:05.649Z,4.10
2023-04-09T21:44:09.888Z,3.80
2023-04-09T21:47:12.290Z,3.80
2023-04-09T21:50:14.670Z,4.30
2023-04-09T21:53:16.591Z,3.60
2023-04-09T21:56:18.209Z,3.80
2023-04-09T21:59:22.963Z,3.80
2023-04-09T22:02:24.888Z,3.90
2023-04-09T22:05:30.604Z,3.80
2023-04-09T22:08:33.367Z,3.50
2023-04-09T22:11:35.748Z,3.90
2023-04-09T22:14:38.548Z,3.80
2023-04-09T22:17:41.630Z,3.50
2023-04-09T22:20:43.303Z,4.10
2023-04-09T22:23:44.938Z,3.80
2023-04-09T22:26:46.938Z,3.50
2023-04-09T22:29:48.511Z,3.40
2023-04-09T22:32:51.568Z,3.80
2023-04-09T22:35:53.773Z,3.80
2023-04-09T22:38:55.612Z,3.70
2023-04-09T22:41:58.416Z,4.00
2023-04-09T22:45:00.036Z,3.70
2023-04-09T22:48:01.874Z,4.40
2023-04-09T22:51:03.612Z,3.90
2023-04-09T22:54:05.764Z,3.80
2023-04-09T22:57:07.371Z,4.10
2023-04-09T23:00:09.233Z,3.70
2023-04-09T23:03:10.904Z,3.90
2023-04-09T23:06:12.590Z,3.50
2023-04-09T23:09:14.146Z,4.00
2023-04-09T23:12:16.095Z,4.20
2023-04-09T23:15:17.858Z,3.60
2023-04-09T23:18:19.467Z,3.80
2023-04-09T23:21:21.188Z,4.20
2023-04-09T23:24:22.807Z,4.30
2023-04-09T23:27:28.452Z,4.10
2023-04-09T23:30:30.323Z,4.40
2023-04-09T23:33:32.661Z,4.20
2023-04-09T23:36:34.249Z,4.50
2023-04-09T23:39:35.910Z,4.20
2023-04-09T23:42:37.505Z,4.00
2023-04-09T23:45:39.110Z,3.90
2023-04-09T23:48:40.776Z,4.50
2023-04-09T23:51:42.312Z,3.80
2023-04-09T23:54:53.396Z,4.20
2023-04-09T23:57:54.970Z,4.40
